• Join FlightAware (Why Join?)
  • Login
  • US Flag 
03:56AM EDT


 

Airport Tracker/Info


-or-


 

Live Flight TrackerFlight Track Log ✈ EJA922 ✈ 31-Oct-2013 ✈ KMDW - KBUR

Flight Track Log - Related Links

Times and Time Zones

All times are in EDT time to prevent confusion due to time zone crossing. See the EJA922 flight status page for this flight to view local times or setup timezone preferences in your user account.

Time Position Orientation Groundspeed Altitude Reporting Facility
EDT Latitude Longitude Course Direction KTS MPH feet Rate Location/Type
05:02PM 41.7667 -87.7333 246° West 168 193 2,100  Level Chicago TRACON
05:03PM 41.7500 -87.7833 246° West 207 238 3,800 1,200 Climbing Chicago TRACON
05:04PM 41.7475 -87.8208 265° West 209 241 4,000 120 Climbing Chicago Center
05:05PM 41.7536 -87.8967 276° West 208 239 4,000 1,740 Level Chicago Center
05:06PM 41.7592 -87.9753 275° West 211 243 7,700 3,360 Climbing Chicago Center
05:07PM 41.7956 -88.0433 306° West 242 278 11,000 2,220 Climbing Chicago Center
05:08PM 41.8119 -88.1417 283° West 276 318 12,400 1,260 Climbing Chicago Center
05:09PM 41.8083 -88.2850 268° West 319 367 13,700 1,380 Climbing Chicago Center
05:10PM 41.8061 -88.4128 269° West 340 391 15,300 1,500 Climbing Chicago Center
05:11PM 41.8025 -88.5389 268° West 342 394 16,900 1,620 Climbing Chicago Center
05:12PM 41.7992 -88.6697 268° West 351 404 18,700 1,680 Climbing Chicago Center
05:13PM 41.7936 -88.8281 267° West 357 411 20,400 1,500 Climbing Chicago Center
05:14PM 41.7764 -88.9558 260° West 352 405 21,900 1,440 Climbing Chicago Center
05:15PM 41.7586 -89.0892 260° West 363 418 23,400 1,440 Climbing Chicago Center
05:16PM 41.7411 -89.2267 260° West 374 430 24,900 1,500 Climbing Chicago Center
05:17PM 41.7219 -89.3642 259° West 375 432 26,600 1,560 Climbing Chicago Center
05:18PM 41.7011 -89.5219 260° West 362 417 28,200 1,200 Climbing Chicago Center
05:19PM 41.6850 -89.6419 260° West 373 429 29,100 1,080 Climbing Chicago Center
05:20PM 41.6606 -89.8089 259° West 381 438 30,500 1,560 Climbing Chicago Center
05:21PM 41.6386 -89.9481 258° West 383 441 32,400 1,560 Climbing Chicago Center
05:22PM 41.6161 -90.0817 257° West 374 430 33,800 1,380 Climbing Chicago Center
05:24PM 41.5950 -90.2175 258° West 373 429 35,300 1,680 Climbing Chicago Center
05:25PM 41.5706 -90.3561 257° West 383 441 37,300 1,680 Climbing Chicago Center
05:26PM 41.5497 -90.4850 258° West 368 423 38,800 1,500 Climbing Chicago Center
05:27PM 41.5242 -90.6347 257° West 349 402 40,400 1,140 Climbing Chicago Center
05:28PM 41.5028 -90.7611 257° West 349 402 41,200 600 Climbing Chicago Center
05:29PM 41.4814 -90.8869 257° West 349 402 41,700 480 Climbing Chicago Center
05:30PM 41.4597 -91.0172 258° West 353 406 42,200 360 Climbing Chicago Center
05:31PM 41.4356 -91.1508 256° West 363 418 42,500 240 Climbing Chicago Center
05:32PM 41.4114 -91.2858 257° West 372 428 42,800 180 Climbing Chicago Center
05:33PM 41.3842 -91.4511 258° West 383 441 42,900 60 Climbing Chicago Center
05:34PM 41.3586 -91.5958 257° West 398 458 43,000  Climbing Chicago Center
05:35PM 41.3322 -91.7428 257° West 408 470 43,000  Level Chicago Center
05:36PM 41.3042 -91.8922 256° West 417 480 43,000  Level Chicago Center
05:37PM 41.2714 -92.0756 257° West 426 490 43,000  Level Chicago Center
05:38PM 41.2419 -92.2311 256° West 435 501 43,000  Level Chicago Center
05:39PM 41.2144 -92.3814 256° West 437 503 43,000  Level Chicago Center
05:40PM 41.1853 -92.5392 256° West 442 509 43,000  Level Chicago Center
05:41PM 41.1494 -92.7275 256° West 443 510 43,000  Level Chicago Center
05:42PM 41.1194 -92.8867 256° West 448 516 43,000  Level Chicago Center
05:43PM 41.0892 -93.0431 256° West 445 512 43,000  Level Chicago Center
05:44PM 41.0581 -93.2017 255° West 449 517 43,000  Level Chicago Center
05:45PM 41.0319 -93.3611 258° West 449 517 43,000  Level Chicago Center
05:46PM 40.9992 -93.5525 257° West 450 518 43,000  Level Chicago Center
05:47PM 40.9728 -93.7128 258° West 451 519 43,000  Level Chicago Center
05:48PM 40.9467 -93.8722 258° West 449 517 43,000  Level Chicago Center
05:49PM 40.9192 -94.0319 257° West 451 519 43,000  Level Chicago Center
05:50PM 40.8864 -94.2222 257° West 448 516 43,000  Level Chicago Center
05:51PM 40.8583 -94.3814 257° West 449 517 43,000  Level Chicago Center
05:53PM 40.8222 -94.5758 256° West 454 522 43,000  Level Minneapolis Center
05:54PM 40.7961 -94.7353 258° West 450 518 43,000  Level Minneapolis Center
05:55PM 40.7658 -94.8997 256° West 455 524 43,000  Level Minneapolis Center
05:56PM 40.7361 -95.0631 257° West 458 527 43,000  Level Minneapolis Center
05:57PM 40.7064 -95.2281 257° West 460 529 43,000  Level Minneapolis Center
05:58PM 40.6756 -95.3928 256° West 462 532 43,000  Level Minneapolis Center
05:59PM 40.6453 -95.5592 257° West 464 534 43,000  Level Minneapolis Center
06:00PM 40.6083 -95.7544 256° West 459 528 43,000  Level Minneapolis Center
06:01PM 40.5775 -95.9206 256° West 464 534 43,000  Level Minneapolis Center
06:02PM 40.5453 -96.0847 256° West 463 533 43,000  Level Minneapolis Center
06:03PM 40.5147 -96.2517 257° West 466 536 43,000  Level Minneapolis Center
06:04PM 40.4819 -96.4192 256° West 471 542 43,000  Level Minneapolis Center
06:05PM 40.4492 -96.5864 256° West 472 543 43,000  Level Minneapolis Center
06:06PM 40.4158 -96.7539 255° West 473 544 43,000  Level Minneapolis Center
06:07PM 40.3756 -96.9547 255° West 474 545 43,000  Level Minneapolis Center
06:08PM 40.3422 -97.1228 255° West 475 547 43,000  Level Minneapolis Center
06:09PM 40.3078 -97.2922 255° West 479 551 43,000  Level Minneapolis Center
06:10PM 40.2767 -97.4500 256° West 478 550 43,000  Level Minneapolis Center
06:11PM 40.2408 -97.6197 255° West 481 554 43,000  Level Minneapolis Center
06:12PM 40.1981 -97.8244 255° West 484 557 43,000  Level Minneapolis Center
06:13PM 40.1622 -97.9953 255° West 485 558 43,000  Level Minneapolis Center
06:14PM 40.1261 -98.1675 255° West 488 562 43,000  Level Minneapolis Center
06:15PM 40.0894 -98.3378 254° West 487 560 43,000  Level Minneapolis Center
06:16PM 40.0531 -98.5111 255° West 489 563 43,000  Level Minneapolis Center
06:17PM 40.0150 -98.6839 254° West 493 567 43,000  Level Minneapolis Center
06:18PM 39.9778 -98.8550 254° West 491 565 43,000  Level Minneapolis Center
06:19PM 39.9394 -99.0283 254° West 494 568 43,000  Level Minneapolis Center
06:20PM 39.8944 -99.2353 254° West 494 568 43,000  Level Minneapolis Center
06:22PM 39.8558 -99.4067 254° West 494 568 43,000  Level Denver Center
06:23PM 39.8094 -99.6111 254° West 490 564 43,000  Level Denver Center
06:24PM 39.7706 -99.7831 254° West 493 567 43,000  Level Denver Center
06:25PM 39.7294 -99.9617 253° West 492 566 43,000  Level Denver Center
06:26PM 39.6919 -100.1264 254° West 495 570 43,000  Level Denver Center
06:27PM 39.6472 -100.3172 253° West 494 568 43,000  Level Denver Center
06:28PM 39.6089 -100.4803 253° West 494 568 43,000  Level Denver Center
06:29PM 39.5697 -100.6453 253° West 498 573 43,000  Level Denver Center
06:30PM 39.5242 -100.8378 253° West 499 574 43,000  Level Denver Center
06:31PM 39.4850 -101.0028 253° West 499 574 43,000  Level Denver Center
06:32PM 39.4389 -101.1967 253° West 504 580 43,000  Level Denver Center
06:33PM 39.3975 -101.3611 252° West 503 579 43,000  Level Denver Center
06:34PM 39.3503 -101.5533 252° West 503 579 43,000  Level Denver Center
06:35PM 39.3111 -101.7156 253° West 503 579 43,000  Level Denver Center
06:36PM 39.2633 -101.9067 252° West 502 578 43,000  Level Denver Center
06:37PM 39.2231 -102.0697 252° West 500 575 43,000  Level Denver Center
06:38PM 39.1750 -102.2594 252° West 500 575 43,000  Level Denver Center
06:39PM 39.1328 -102.4214 251° West 499 574 43,000  Level Denver Center
06:40PM 39.0847 -102.6106 252° West 501 577 43,000  Level Denver Center
06:41PM 39.0394 -102.7839 251° West 501 577 43,000  Level Denver Center
06:42PM 38.9958 -102.9525 252° West 498 573 43,000  Level Denver Center
06:43PM 38.9519 -103.1206 251° West 496 571 43,000  Level Denver Center
06:44PM 38.9081 -103.2878 251° West 494 568 43,000  Level Denver Center
06:45PM 38.8639 -103.4553 251° West 495 570 43,000  Level Denver Center
06:46PM 38.8172 -103.6319 251° West 492 566 43,000  Level Denver Center
06:47PM 38.7747 -103.7900 251° West 493 567 43,000  Level Denver Center
06:48PM 38.7244 -103.9744 251° West 492 566 43,000  Level Denver Center
06:49PM 38.6758 -104.1542 251° West 497 572 43,000  Level Denver Center
06:51PM 38.6303 -104.3197 251° West 495 570 43,000  Level Denver Center
06:52PM 38.5847 -104.4847 251° West 492 566 43,000  Level Denver Center
06:53PM 38.5394 -104.6489 251° West 489 563 43,000  Level Denver Center
06:54PM 38.4942 -104.8119 251° West 487 560 43,000  Level Denver Center
06:55PM 38.4481 -104.9769 250° West 492 566 43,000  Level Denver Center
06:56PM 38.4025 -105.1386 250° West 485 558 43,100  Climbing Denver Center
06:57PM 38.3461 -105.3342 250° West 490 564 43,000 -60 Descending Denver Center
06:58PM 38.3025 -105.4883 250° West 489 563 43,000  Level Denver Center
06:59PM 38.2572 -105.6450 250° West 492 566 43,000  Level Denver Center
07:00PM 38.2042 -105.8286 250° West 496 571 43,000  Level Denver Center
07:01PM 38.1575 -105.9861 249° West 498 573 43,000  Level Denver Center
07:02PM 38.1019 -106.1753 250° West 498 573 43,000  Level Denver Center
07:03PM 38.0569 -106.3289 250° West 500 575 43,000  Level Denver Center
07:04PM 38.0003 -106.5183 249° West 502 578 43,000  Level Denver Center
07:05PM 37.9508 -106.6817 249° West 500 575 43,000  Level Denver Center
07:06PM 37.9028 -106.8403 249° West 504 580 43,000  Level Denver Center
07:07PM 37.8472 -107.0239 249° West 500 575 43,000  Level Denver Center
07:08PM 37.8014 -107.1739 249° West 496 571 43,000  Level Denver Center
07:09PM 37.7458 -107.3558 249° West 498 573 43,000  Level Denver Center
07:10PM 37.6975 -107.5097 248° West 494 568 43,000  Level Denver Center
07:11PM 37.6417 -107.6914 249° West 497 572 43,000  Level Denver Center
07:12PM 37.5933 -107.8478 249° West 499 574 43,000  Level Denver Center
07:13PM 37.5433 -108.0044 248° West 504 580 43,000  Level Denver Center
07:14PM 37.4861 -108.1886 249° West 505 581 43,000  Level Denver Center
07:15PM 37.4361 -108.3442 248° West 503 579 43,000  Level Denver Center
07:16PM 37.3775 -108.5286 248° West 509 586 43,000  Level Denver Center
07:17PM 37.3272 -108.6858 248° West 508 585 43,000  Level Denver Center
07:18PM 37.2667 -108.8689 247° West 508 585 43,000  Level Denver Center
07:19PM 37.2161 -109.0275 248° West 511 588 43,000  Level Denver Center
07:20PM 37.1547 -109.2133 248° West 517 595 43,000  Level Denver Center
07:21PM 37.1028 -109.3731 248° West 519 597 43,000  Level Denver Center
07:22PM 37.0403 -109.5611 247° West 525 604 43,000  Level Denver Center
07:24PM 36.9311 -109.8764 247° West 522 601 43,000  Level Los Angeles Center
07:25PM 36.8747 -110.0436 247° West 523 602 43,000  Level Los Angeles Center
07:27PM 36.8072 -110.2444 247° West 523 602 43,000  Level Los Angeles Center
07:28PM 36.7503 -110.4106 247° West 522 601 43,000  Level Los Angeles Center
07:29PM 36.6939 -110.5767 247° West 521 600 43,000  Level Los Angeles Center
07:30PM 36.6386 -110.7403 247° West 521 600 43,000  Level Denver Center
07:31PM 36.5822 -110.9061 247° West 520 598 43,000  Level Denver Center
07:32PM 36.5253 -111.0717 247° West 520 598 43,000  Level Denver Center
07:33PM 36.4536 -111.2694 246° West 522 601 43,000  Level Denver Center
07:34PM 36.3956 -111.4339 246° West 520 598 43,000  Level Denver Center
07:35PM 36.3389 -111.5967 247° West 517 595 43,000  Level Denver Center
07:36PM 36.2808 -111.7606 246° West 518 596 43,000  Level Denver Center
07:37PM 36.2222 -111.9236 246° West 518 596 43,000  Level Denver Center
07:38PM 36.1575 -112.1036 246° West 525 604 43,000  Level Los Angeles Center
07:39PM 36.0981 -112.2664 246° West 523 602 43,000  Level Los Angeles Center
07:40PM 36.0322 -112.4461 246° West 519 597 43,000  Level Los Angeles Center
07:41PM 35.9722 -112.6097 246° West 522 601 43,000  Level Los Angeles Center
07:42PM 35.9097 -112.7803 246° West 520 598 43,000  Level Los Angeles Center
07:43PM 35.8506 -112.9408 246° West 522 601 43,000  Level Los Angeles Center
07:44PM 35.7908 -113.1022 246° West 524 603 43,000  Level Los Angeles Center
07:45PM 35.7303 -113.2631 245° Southwest 526 605 43,000  Level Los Angeles Center
07:46PM 35.6578 -113.4556 245° Southwest 525 604 43,000  Level Los Angeles Center
07:47PM 35.5956 -113.6156 244° Southwest 525 604 43,000  Level Los Angeles Center
07:48PM 35.5308 -113.7750 244° Southwest 527 606 43,000  Level Los Angeles Center
07:49PM 35.4664 -113.9336 244° Southwest 525 604 43,000  Level Los Angeles Center
07:50PM 35.3881 -114.1222 243° Southwest 528 608 43,000  Level Los Angeles Center
07:51PM 35.3233 -114.2817 244° Southwest 523 602 43,000  Level Los Angeles Center
07:52PM 35.2567 -114.4417 243° Southwest 523 602 43,000  Level Los Angeles Center
07:53PM 35.1911 -114.6022 243° Southwest 526 605 43,000  Level Los Angeles Center
07:54PM 35.1222 -114.7656 243° Southwest 535 616 43,000  Level Los Angeles Center
07:55PM 35.0556 -114.9258 243° Southwest 530 610 43,000  Level Los Angeles Center
07:57PM 34.9881 -115.0861 243° Southwest 530 610 43,000  Level Los Angeles Center
07:58PM 34.9069 -115.2772 243° Southwest 528 608 43,000  Level Los Angeles Center
07:59PM 34.8386 -115.4389 243° Southwest 533 613 43,000  Level Los Angeles Center
08:00PM 34.7797 -115.5767 243° Southwest 532 612 43,000 -660 Level Los Angeles Center
08:01PM 34.6978 -115.7689 243° Southwest 534 615 41,700 -1,560 Descending Los Angeles Center
08:02PM 34.6281 -115.9281 242° Southwest 533 613 39,800 -2,340 Descending Los Angeles Center
08:03PM 34.5600 -116.0872 243° Southwest 532 612 36,900 -3,000 Descending Los Angeles Center
08:04PM 34.4914 -116.2444 242° Southwest 528 608 33,600 -3,180 Descending Los Angeles Center
08:05PM 34.4203 -116.4069 242° Southwest 541 623 30,400 -2,940 Descending Los Angeles Center
08:06PM 34.3469 -116.5719 242° Southwest 553 636 27,600 -2,880 Descending Los Angeles Center
08:07PM 34.2597 -116.7669 242° Southwest 546 628 24,400 -2,760 Descending Los Angeles Center
08:08PM 34.2014 -116.8972 242° Southwest 445 512 21,900 -2,280 Descending Los Angeles Center
08:09PM 34.1519 -117.0108 242° Southwest 381 438 19,800 -2,100 Descending Los Angeles Center
08:10PM 34.1167 -117.1167 248° West 345 397 18,000 -1,500 Descending Southern California TRACON
08:11PM 34.0667 -117.2000 234° Southwest 333 383 17,100 -900 Descending Southern California TRACON
08:12PM 34.0500 -117.3167 260° West 337 388 16,200 -1,260 Descending Southern California TRACON
08:13PM 34.0333 -117.4333 260° West 327 376 14,600 -1,440 Descending Southern California TRACON
08:14PM 34.0167 -117.5333 259° West 310 357 13,300 -1,260 Descending Southern California TRACON
08:15PM 34.0167 -117.6333 270° West 378 435 12,100 -1,440 Descending Southern California TRACON
08:16PM 34.0000 -117.7333 259° West 284 327 10,500 -1,560 Descending Southern California TRACON
08:17PM 33.9833 -117.8333 259° West 290 334 9,000 -1,500 Descending Southern California TRACON
08:18PM 33.9833 -117.9167 270° West 248 285 7,500 -1,320 Descending Southern California TRACON
08:19PM 33.9833 -118.0000 270° West 203 234 6,400 -1,080 Descending Southern California TRACON
08:20PM 33.9667 -118.0667 253° West 197 227 5,400 -1,020 Descending Southern California TRACON
08:21PM 33.9667 -118.1167 270° West 187 215 4,400 -900 Descending Southern California TRACON
08:21PM 33.9622 -118.1456 259° West 191 220 4,000 -960 Descending Los Angeles Center
08:23PM 33.9533 -118.2264 262° West 179 206 2,700 -1,020 Descending Los Angeles Center
08:24PM 33.9483 -118.2783 263° West 168 193 1,800 -780 Descending Los Angeles Center
08:25PM 33.9436 -118.3228 263° West 149 171 1,200 -660 Descending Los Angeles Center
08:26PM 33.9397 -118.3606 263° West 127 146 500 -540 Descending Los Angeles Center
08:27PM 33.9358 -118.4033 264° West 121 139 200 -300 Descending Los Angeles Center
08:29PM 33.9333 -118.4000 259° West  Level FlightAware Approximate
08:36PM 34.2007 -118.3587 259° West  Level Estimated
08:37PM 34.2007 -118.3587 259° West  Level Estimated
08:38PM 34.2007 -118.3587 259° West  Level Estimated
08:39PM 34.2007 -118.3587 259° West  Level Estimated
08:40PM 34.2007 -118.3587 259° West  Level Estimated
08:41PM 34.2007 -118.3587 259° West  Level Estimated